createdAt,value
2022-07-30T00:01:49.206Z,21.53
2022-07-30T00:06:51.755Z,21.54
2022-07-30T00:11:54.515Z,21.46
2022-07-30T00:16:57.832Z,21.48
2022-07-30T00:22:05.505Z,21.45
2022-07-30T00:27:07.873Z,21.45
2022-07-30T00:32:10.713Z,21.43
2022-07-30T00:37:13.399Z,21.35
2022-07-30T00:42:33.791Z,21.32
2022-07-30T00:47:36.730Z,21.34
2022-07-30T00:52:39.436Z,21.31
2022-07-30T00:57:42.054Z,21.21
2022-07-30T01:02:44.592Z,21.12
2022-07-30T01:07:47.111Z,21.09
2022-07-30T01:12:50.002Z,21.09
2022-07-30T01:17:52.965Z,21.03
2022-07-30T01:22:55.486Z,20.99
2022-07-30T01:27:58.241Z,20.93
2022-07-30T01:33:01.091Z,20.91
2022-07-30T01:38:03.621Z,20.8
2022-07-30T01:43:06.134Z,20.8
2022-07-30T01:48:08.873Z,20.76
2022-07-30T01:53:11.429Z,20.66
2022-07-30T02:03:16.784Z,20.67
2022-07-30T02:08:19.486Z,20.67
2022-07-30T02:13:21.975Z,20.65
2022-07-30T02:18:27.521Z,20.62
2022-07-30T02:23:30.662Z,20.61
2022-07-30T02:28:33.228Z,20.51
2022-07-30T02:33:35.859Z,20.47
2022-07-30T02:38:38.794Z,20.39
2022-07-30T02:43:41.700Z,20.32
2022-07-30T02:48:44.385Z,20.3
2022-07-30T03:03:55.354Z,20.18
2022-07-30T03:08:58.105Z,20.12
2022-07-30T03:14:00.665Z,20.08
2022-07-30T03:19:03.282Z,20.05
2022-07-30T03:29:08.747Z,20
2022-07-30T03:34:12.734Z,19.95
2022-07-30T03:44:19.435Z,19.95
2022-07-30T03:54:24.747Z,19.79
2022-07-30T03:59:27.552Z,19.85
2022-07-30T04:14:35.421Z,20.02
2022-07-30T04:19:38.410Z,20.11
2022-07-30T04:29:46.659Z,20.16
2022-07-30T04:34:49.284Z,20.24
2022-07-30T04:44:54.498Z,20.33
2022-07-30T04:49:57.435Z,20.38
2022-07-30T04:55:00.066Z,20.38
2022-07-30T05:00:05.567Z,20.43
2022-07-30T05:05:08.430Z,20.63
2022-07-30T05:10:10.864Z,20.7
2022-07-30T05:15:13.575Z,20.81
2022-07-30T05:20:16.299Z,20.92
2022-07-30T05:25:19.187Z,20.99
2022-07-30T05:35:24.374Z,21.2
2022-07-30T05:40:27.102Z,21.3
2022-07-30T05:45:29.988Z,21.39
2022-07-30T05:50:32.446Z,21.43
2022-07-30T05:55:35.424Z,21.53
2022-07-30T06:00:37.670Z,21.23
2022-07-30T06:05:40.466Z,21.17
2022-07-30T06:10:43.179Z,21.18
2022-07-30T06:15:45.816Z,21.32
2022-07-30T06:20:48.374Z,21.52
2022-07-30T06:25:51.226Z,21.58
2022-07-30T06:30:53.842Z,21.6
2022-07-30T06:35:56.852Z,22.06
2022-07-30T06:41:02.471Z,22.46
2022-07-30T06:46:02.455Z,22.4
2022-07-30T06:51:07.960Z,22.59
2022-07-30T06:56:10.781Z,22.27
2022-07-30T07:01:13.470Z,21.97
2022-07-30T07:06:15.834Z,21.91
2022-07-30T07:11:18.457Z,22.02
2022-07-30T07:16:21.313Z,22.18
2022-07-30T07:21:23.947Z,22.39
2022-07-30T07:26:26.887Z,22.47
2022-07-30T07:32:02.916Z,22.18
2022-07-30T07:36:32.027Z,22.24
2022-07-30T07:41:48.169Z,22.1
2022-07-30T07:46:37.616Z,22.1
2022-07-30T07:51:46.980Z,22.31
2022-07-30T07:56:43.119Z,22.43
2022-07-30T08:01:49.915Z,23.25
2022-07-30T08:06:51.447Z,23.5
2022-07-30T08:11:59.090Z,23.61
2022-07-30T08:22:04.758Z,23.52
2022-07-30T08:27:08.209Z,24.23
2022-07-30T08:32:10.669Z,23.99
2022-07-30T08:37:17.303Z,24.89
2022-07-30T08:42:20.549Z,25.19
2022-07-30T08:47:28.574Z,26.15
2022-07-30T08:57:28.852Z,24.56
2022-07-30T09:07:33.739Z,24.99
2022-07-30T09:12:36.834Z,25.11
2022-07-30T09:17:39.361Z,25.11
2022-07-30T09:22:42.053Z,24.63
2022-07-30T09:27:44.942Z,24.52
2022-07-30T09:32:47.374Z,24.59
2022-07-30T09:42:52.660Z,25.08
2022-07-30T09:47:55.365Z,25.43
2022-07-30T09:52:58.364Z,25.79
2022-07-30T09:58:01.570Z,26
2022-07-30T10:03:12.250Z,26.17
2022-07-30T10:13:11.867Z,26.31
2022-07-30T10:18:18.510Z,27.04
2022-07-30T10:23:39.812Z,26.42
2022-07-30T10:28:42.047Z,26.51
2022-07-30T10:33:44.488Z,26.31
2022-07-30T10:38:46.868Z,26.27
2022-07-30T10:43:49.639Z,27.31
2022-07-30T10:49:11.681Z,26.51
2022-07-30T10:54:12.949Z,27.62
2022-07-30T10:59:15.955Z,27.78
2022-07-30T11:04:20.365Z,28.42
2022-07-30T11:09:21.754Z,27.56
2022-07-30T11:14:24.801Z,28.61
2022-07-30T11:24:29.638Z,27.69
2022-07-30T11:29:32.903Z,27.77
2022-07-30T11:39:38.736Z,27.6
2022-07-30T11:44:40.455Z,27.57
2022-07-30T11:49:43.204Z,27.83
2022-07-30T11:59:48.753Z,28.45
2022-07-30T12:09:53.823Z,27.77
2022-07-30T12:19:59.427Z,28.57
2022-07-30T12:25:03.029Z,28.39
2022-07-30T12:30:05.503Z,27.94
2022-07-30T12:35:08.393Z,28.86
2022-07-30T12:45:14.243Z,28.68
2022-07-30T12:50:16.486Z,28.15
2022-07-30T12:55:19.166Z,28.12
2022-07-30T13:00:22.058Z,28.63
2022-07-30T13:05:24.631Z,27.87
2022-07-30T13:10:30.655Z,28.43
2022-07-30T13:15:30.217Z,28.04
2022-07-30T13:20:35.268Z,27.76
2022-07-30T13:30:41.190Z,27.65
2022-07-30T13:35:43.800Z,27.42
2022-07-30T13:40:46.615Z,28.4
2022-07-30T13:45:49.280Z,27.79
2022-07-30T13:50:51.985Z,27.63
2022-07-30T13:55:54.492Z,27.73
2022-07-30T14:01:00.358Z,28.05
2022-07-30T14:06:10.218Z,28.13
2022-07-30T14:11:05.683Z,27.71
2022-07-30T14:16:22.922Z,27.37
2022-07-30T14:21:10.859Z,27.86
2022-07-30T14:26:14.153Z,27.91
2022-07-30T14:31:16.641Z,27.45
2022-07-30T14:36:18.633Z,26.76
2022-07-30T14:41:20.999Z,26.54
2022-07-30T14:46:23.473Z,26.57
2022-07-30T14:51:27.193Z,26.86
2022-07-30T14:56:28.765Z,26.91
2022-07-30T15:01:31.810Z,27.31
2022-07-30T15:06:34.548Z,27.03
2022-07-30T15:11:56.629Z,26.64
2022-07-30T15:16:39.891Z,27.05
2022-07-30T15:21:42.532Z,27.04
2022-07-30T15:26:45.509Z,27.16
2022-07-30T15:31:48.364Z,26.86
2022-07-30T15:36:51.019Z,26.85
2022-07-30T15:41:53.581Z,26.93
2022-07-30T15:46:56.177Z,26.89
2022-07-30T15:51:58.604Z,26.72
2022-07-30T15:57:04.091Z,26.6
2022-07-30T16:02:06.974Z,26.67
2022-07-30T16:07:09.638Z,26.58
2022-07-30T16:12:12.298Z,26.57
2022-07-30T16:17:15.011Z,26.53
2022-07-30T16:22:22.110Z,26.54
2022-07-30T16:27:20.286Z,26.62
2022-07-30T16:32:23.031Z,26.57
2022-07-30T16:37:26.360Z,26.58
2022-07-30T16:42:28.915Z,26.4
2022-07-30T16:47:33.586Z,26.33
2022-07-30T16:52:34.209Z,26.31
2022-07-30T16:57:36.893Z,26.28
2022-07-30T17:02:39.698Z,26.25
2022-07-30T17:12:46.855Z,26.14
2022-07-30T17:17:50.133Z,26.09
2022-07-30T17:22:52.817Z,26.06
2022-07-30T17:27:55.521Z,25.99
2022-07-30T17:33:00.850Z,25.93
2022-07-30T17:38:03.490Z,25.86
2022-07-30T17:43:08.791Z,25.77
2022-07-30T17:48:11.487Z,25.71
2022-07-30T17:53:14.151Z,25.57
2022-07-30T17:58:16.873Z,25.46
2022-07-30T18:03:19.401Z,25.35
2022-07-30T18:08:22.289Z,25.27
2022-07-30T18:13:26.231Z,25.18
2022-07-30T18:18:27.237Z,25.09
2022-07-30T18:23:32.473Z,25.03
2022-07-30T18:28:32.633Z,24.98
2022-07-30T18:33:35.222Z,24.92
2022-07-30T18:38:38.051Z,24.83
2022-07-30T18:43:47.477Z,24.69
2022-07-30T18:48:43.519Z,24.48
2022-07-30T18:53:46.072Z,24.38
2022-07-30T19:03:51.510Z,24.36
2022-07-30T19:08:54.278Z,24.35
2022-07-30T19:13:59.803Z,24.36
2022-07-30T19:19:02.508Z,24.35
2022-07-30T19:24:05.171Z,24.36
2022-07-30T19:29:07.831Z,24.28
2022-07-30T19:34:10.529Z,24.13
2022-07-30T19:39:16.014Z,24.05
2022-07-30T19:49:19.495Z,23.88
2022-07-30T19:54:22.039Z,23.64
2022-07-30T19:59:25.324Z,23.51
2022-07-30T20:04:27.127Z,23.35
2022-07-30T20:09:32.654Z,23.15
2022-07-30T20:25:37.131Z,22.69
2022-07-30T20:30:38.795Z,22.52
2022-07-30T20:35:41.531Z,22.38
2022-07-30T20:40:44.349Z,22.24
2022-07-30T20:45:46.959Z,22.04
2022-07-30T20:55:54.762Z,21.89
2022-07-30T21:00:57.559Z,21.97
2022-07-30T21:06:00.267Z,21.84
2022-07-30T21:21:08.034Z,21.64
2022-07-30T21:26:13.556Z,21.6
2022-07-30T21:31:13.640Z,21.56
2022-07-30T21:36:16.371Z,21.57
2022-07-30T21:41:37.666Z,21.39
2022-07-30T21:46:25.123Z,21.19
2022-07-30T21:51:26.911Z,21.14
2022-07-30T21:56:29.547Z,21.12
2022-07-30T22:01:32.961Z,21
2022-07-30T22:06:34.744Z,20.93
2022-07-30T22:11:42.311Z,20.94
2022-07-30T22:16:42.626Z,20.85
2022-07-30T22:26:45.794Z,20.68
2022-07-30T22:31:48.469Z,20.5
2022-07-30T22:36:50.944Z,20.35
2022-07-30T22:41:53.512Z,20.26
2022-07-30T22:46:56.636Z,20.2
2022-07-30T22:52:05.054Z,20.07
2022-07-30T23:02:07.028Z,19.94
2022-07-30T23:07:09.793Z,19.86
2022-07-30T23:12:16.161Z,23.94
2022-07-30T23:12:17.693Z,19.93
2022-07-30T23:22:20.474Z,19.82
2022-07-30T23:32:25.831Z,19.74
2022-07-30T23:42:31.221Z,19.47
2022-07-30T23:47:35.359Z,19.39
